sensor_id;sensor_type;location;lat;lon;timestamp;P1;P2;P0
84339;PMS7003;74521;45.618;5.212;2023-12-07T00:01:52;3.00;2.00;2.00
84339;PMS7003;74521;45.618;5.212;2023-12-07T00:04:20;3.00;3.00;3.00
84339;PMS7003;74521;45.618;5.212;2023-12-07T00:06:47;4.50;3.50;2.75
84339;PMS7003;74521;45.618;5.212;2023-12-07T00:09:14;3.00;2.25;2.00
84339;PMS7003;74521;45.618;5.212;2023-12-07T00:11:39;5.50;4.00;2.50
84339;PMS7003;74521;45.618;5.212;2023-12-07T00:14:06;5.00;2.00;2.00
84339;PMS7003;74521;45.618;5.212;2023-12-07T00:16:33;5.50;4.00;4.00
84339;PMS7003;74521;45.618;5.212;2023-12-07T00:18:59;2.50;2.50;2.00
84339;PMS7003;74521;45.618;5.212;2023-12-07T00:21:27;3.00;3.00;2.00
84339;PMS7003;74521;45.618;5.212;2023-12-07T00:23:54;2.75;2.00;2.00
84339;PMS7003;74521;45.618;5.212;2023-12-07T00:26:20;5.00;3.00;2.00
84339;PMS7003;74521;45.618;5.212;2023-12-07T00:28:47;3.00;3.00;2.25
84339;PMS7003;74521;45.618;5.212;2023-12-07T00:31:13;2.25;2.25;1.00
84339;PMS7003;74521;45.618;5.212;2023-12-07T00:33:40;2.25;2.25;2.00
84339;PMS7003;74521;45.618;5.212;2023-12-07T00:36:07;3.00;2.75;2.00
84339;PMS7003;74521;45.618;5.212;2023-12-07T00:38:36;1.00;1.00;1.00
84339;PMS7003;74521;45.618;5.212;2023-12-07T00:41:02;2.00;2.00;1.25
84339;PMS7003;74521;45.618;5.212;2023-12-07T00:43:29;4.25;2.50;2.00
84339;PMS7003;74521;45.618;5.212;2023-12-07T00:45:56;3.50;2.00;2.00
84339;PMS7003;74521;45.618;5.212;2023-12-07T00:48:23;4.25;2.00;1.50
84339;PMS7003;74521;45.618;5.212;2023-12-07T00:50:49;3.00;3.00;2.00
84339;PMS7003;74521;45.618;5.212;2023-12-07T00:53:16;1.75;1.75;1.50
84339;PMS7003;74521;45.618;5.212;2023-12-07T00:55:44;4.00;3.00;2.00
84339;PMS7003;74521;45.618;5.212;2023-12-07T00:58:10;1.75;1.75;1.75
84339;PMS7003;74521;45.618;5.212;2023-12-07T01:00:37;3.50;2.75;2.50
84339;PMS7003;74521;45.618;5.212;2023-12-07T01:03:04;2.00;2.00;2.00
84339;PMS7003;74521;45.618;5.212;2023-12-07T01:05:31;4.50;2.75;2.00
84339;PMS7003;74521;45.618;5.212;2023-12-07T01:07:57;4.75;2.75;2.00
84339;PMS7003;74521;45.618;5.212;2023-12-07T01:10:24;3.50;3.50;2.00
84339;PMS7003;74521;45.618;5.212;2023-12-07T01:12:52;2.00;2.00;1.00
84339;PMS7003;74521;45.618;5.212;2023-12-07T01:15:19;2.50;2.50;2.00
84339;PMS7003;74521;45.618;5.212;2023-12-07T01:17:45;5.50;3.00;2.00
84339;PMS7003;74521;45.618;5.212;2023-12-07T01:20:12;3.00;2.00;1.25
84339;PMS7003;74521;45.618;5.212;2023-12-07T01:22:39;2.00;2.00;2.00
84339;PMS7003;74521;45.618;5.212;2023-12-07T01:25:06;3.00;3.00;2.00
84339;PMS7003;74521;45.618;5.212;2023-12-07T01:27:33;5.00;3.25;2.25
84339;PMS7003;74521;45.618;5.212;2023-12-07T01:30:01;5.50;3.00;2.00
84339;PMS7003;74521;45.618;5.212;2023-12-07T01:32:29;2.00;2.00;1.50
84339;PMS7003;74521;45.618;5.212;2023-12-07T01:34:55;3.00;1.50;1.25
84339;PMS7003;74521;45.618;5.212;2023-12-07T01:37:22;2.00;2.00;1.00
84339;PMS7003;74521;45.618;5.212;2023-12-07T01:39:48;3.75;3.00;2.00
84339;PMS7003;74521;45.618;5.212;2023-12-07T01:42:15;2.75;1.75;1.25
84339;PMS7003;74521;45.618;5.212;2023-12-07T01:44:42;3.00;3.00;2.50
84339;PMS7003;74521;45.618;5.212;2023-12-07T01:47:10;2.50;2.50;2.00
84339;PMS7003;74521;45.618;5.212;2023-12-07T01:49:37;2.25;2.25;1.75
84339;PMS7003;74521;45.618;5.212;2023-12-07T01:52:04;3.25;2.00;1.50
84339;PMS7003;74521;45.618;5.212;2023-12-07T01:54:32;2.00;2.00;2.00
84339;PMS7003;74521;45.618;5.212;2023-12-07T01:56:59;2.75;2.00;2.00
84339;PMS7003;74521;45.618;5.212;2023-12-07T01:59:26;3.00;3.00;2.00
84339;PMS7003;74521;45.618;5.212;2023-12-07T02:01:53;4.00;2.50;2.00
84339;PMS7003;74521;45.618;5.212;2023-12-07T02:04:21;4.25;3.00;2.00
84339;PMS7003;74521;45.618;5.212;2023-12-07T02:06:48;3.00;2.00;2.00
84339;PMS7003;74521;45.618;5.212;2023-12-07T02:09:14;5.75;3.00;2.00
84339;PMS7003;74521;45.618;5.212;2023-12-07T02:11:41;4.50;2.00;1.75
84339;PMS7003;74521;45.618;5.212;2023-12-07T02:14:08;2.50;2.50;1.50
84339;PMS7003;74521;45.618;5.212;2023-12-07T02:16:35;5.00;3.00;2.00
84339;PMS7003;74521;45.618;5.212;2023-12-07T02:19:11;1.50;1.50;1.25
84339;PMS7003;74521;45.618;5.212;2023-12-07T02:21:52;1.00;1.00;0.25
84339;PMS7003;74521;45.618;5.212;2023-12-07T02:24:24;1.50;1.25;1.00
84339;PMS7003;74521;45.618;5.212;2023-12-07T02:26:54;3.00;3.00;3.00
84339;PMS7003;74521;45.618;5.212;2023-12-07T02:29:21;4.00;2.00;2.00
84339;PMS7003;74521;45.618;5.212;2023-12-07T02:31:47;1.00;1.00;1.00
84339;PMS7003;74521;45.618;5.212;2023-12-07T02:34:14;1.50;1.50;1.50
84339;PMS7003;74521;45.618;5.212;2023-12-07T02:36:41;2.00;2.00;1.00
84339;PMS7003;74521;45.618;5.212;2023-12-07T02:39:10;3.00;3.00;2.00
84339;PMS7003;74521;45.618;5.212;2023-12-07T02:41:38;1.25;1.25;1.00
84339;PMS7003;74521;45.618;5.212;2023-12-07T02:44:08;2.25;2.25;2.00
84339;PMS7003;74521;45.618;5.212;2023-12-07T02:46:35;2.75;2.75;2.00
84339;PMS7003;74521;45.618;5.212;2023-12-07T02:49:02;3.00;1.75;1.00
84339;PMS7003;74521;45.618;5.212;2023-12-07T02:51:28;6.50;4.00;3.00
84339;PMS7003;74521;45.618;5.212;2023-12-07T02:53:55;3.00;3.00;2.25
84339;PMS7003;74521;45.618;5.212;2023-12-07T02:56:21;3.25;3.00;2.00
84339;PMS7003;74521;45.618;5.212;2023-12-07T02:58:48;1.75;1.75;1.00
84339;PMS7003;74521;45.618;5.212;2023-12-07T03:01:16;1.50;1.50;1.00
84339;PMS7003;74521;45.618;5.212;2023-12-07T03:03:43;3.25;2.50;2.00
84339;PMS7003;74521;45.618;5.212;2023-12-07T03:06:09;3.00;3.00;2.00
84339;PMS7003;74521;45.618;5.212;2023-12-07T03:08:36;3.75;2.00;2.00
84339;PMS7003;74521;45.618;5.212;2023-12-07T03:11:03;2.50;2.00;1.25
84339;PMS7003;74521;45.618;5.212;2023-12-07T03:13:31;1.75;1.75;1.00
84339;PMS7003;74521;45.618;5.212;2023-12-07T03:15:58;3.75;2.00;2.00
84339;PMS7003;74521;45.618;5.212;2023-12-07T03:18:25;1.00;1.00;1.00
84339;PMS7003;74521;45.618;5.212;2023-12-07T03:20:52;2.75;1.75;1.50
84339;PMS7003;74521;45.618;5.212;2023-12-07T03:23:19;2.00;2.00;1.75
84339;PMS7003;74521;45.618;5.212;2023-12-07T03:25:45;3.00;2.00;2.00
84339;PMS7003;74521;45.618;5.212;2023-12-07T03:28:12;5.50;3.00;2.00
84339;PMS7003;74521;45.618;5.212;2023-12-07T03:30:38;3.75;2.25;2.00
84339;PMS7003;74521;45.618;5.212;2023-12-07T03:33:05;2.75;1.25;1.00
84339;PMS7003;74521;45.618;5.212;2023-12-07T03:35:33;2.50;2.50;1.75
84339;PMS7003;74521;45.618;5.212;2023-12-07T03:38:00;2.00;2.00;1.00
84339;PMS7003;74521;45.618;5.212;2023-12-07T03:40:27;2.25;2.25;2.00
84339;PMS7003;74521;45.618;5.212;2023-12-07T03:42:53;3.00;3.00;2.00
84339;PMS7003;74521;45.618;5.212;2023-12-07T03:45:20;3.00;3.00;1.25
84339;PMS7003;74521;45.618;5.212;2023-12-07T03:47:46;2.00;2.00;1.75
84339;PMS7003;74521;45.618;5.212;2023-12-07T03:50:13;2.00;2.00;2.00
84339;PMS7003;74521;45.618;5.212;2023-12-07T03:52:41;1.25;1.25;1.25
84339;PMS7003;74521;45.618;5.212;2023-12-07T03:55:08;3.50;2.25;2.25
84339;PMS7003;74521;45.618;5.212;2023-12-07T03:57:35;3.00;2.00;1.00
84339;PMS7003;74521;45.618;5.212;2023-12-07T04:00:02;3.00;3.00;2.00
84339;PMS7003;74521;45.618;5.212;2023-12-07T04:02:32;3.00;1.25;1.25
84339;PMS7003;74521;45.618;5.212;2023-12-07T04:04:59;2.00;2.00;1.00
84339;PMS7003;74521;45.618;5.212;2023-12-07T04:07:27;3.00;1.50;1.00
84339;PMS7003;74521;45.618;5.212;2023-12-07T04:09:55;3.00;1.00;1.00
84339;PMS7003;74521;45.618;5.212;2023-12-07T04:12:22;5.75;2.00;2.00
84339;PMS7003;74521;45.618;5.212;2023-12-07T04:14:49;2.00;2.00;1.00
84339;PMS7003;74521;45.618;5.212;2023-12-07T04:17:16;1.00;1.00;1.00
84339;PMS7003;74521;45.618;5.212;2023-12-07T04:19:43;2.50;1.50;1.00
84339;PMS7003;74521;45.618;5.212;2023-12-07T04:22:09;2.75;2.00;1.75
84339;PMS7003;74521;45.618;5.212;2023-12-07T04:24:36;3.50;1.75;1.50
84339;PMS7003;74521;45.618;5.212;2023-12-07T04:27:04;4.00;3.00;2.00
84339;PMS7003;74521;45.618;5.212;2023-12-07T04:29:31;2.00;2.00;1.00
84339;PMS7003;74521;45.618;5.212;2023-12-07T04:31:58;3.50;1.75;1.00
84339;PMS7003;74521;45.618;5.212;2023-12-07T04:34:24;6.25;2.00;1.00
84339;PMS7003;74521;45.618;5.212;2023-12-07T04:36:51;2.00;2.00;1.50
84339;PMS7003;74521;45.618;5.212;2023-12-07T04:39:17;2.75;2.00;1.25
84339;PMS7003;74521;45.618;5.212;2023-12-07T04:41:44;3.00;2.00;1.50
84339;PMS7003;74521;45.618;5.212;2023-12-07T04:44:12;5.00;2.00;2.00
84339;PMS7003;74521;45.618;5.212;2023-12-07T04:46:39;2.75;1.00;1.00
84339;PMS7003;74521;45.618;5.212;2023-12-07T04:49:05;1.50;1.25;1.00
84339;PMS7003;74521;45.618;5.212;2023-12-07T04:51:32;1.75;1.25;1.00
84339;PMS7003;74521;45.618;5.212;2023-12-07T04:53:58;2.00;2.00;1.00
84339;PMS7003;74521;45.618;5.212;2023-12-07T04:56:25;2.00;2.00;2.00
84339;PMS7003;74521;45.618;5.212;2023-12-07T04:58:51;4.00;2.75;2.00
84339;PMS7003;74521;45.618;5.212;2023-12-07T05:01:19;2.00;2.00;2.00
84339;PMS7003;74521;45.618;5.212;2023-12-07T05:03:46;2.75;1.75;1.25
84339;PMS7003;74521;45.618;5.212;2023-12-07T05:06:13;2.00;1.50;1.00
84339;PMS7003;74521;45.618;5.212;2023-12-07T05:08:40;3.00;2.25;1.50
84339;PMS7003;74521;45.618;5.212;2023-12-07T05:11:08;2.00;2.00;1.00
84339;PMS7003;74521;45.618;5.212;2023-12-07T05:13:35;2.25;2.25;1.75
84339;PMS7003;74521;45.618;5.212;2023-12-07T05:16:01;1.75;1.75;1.50
84339;PMS7003;74521;45.618;5.212;2023-12-07T05:18:30;5.50;2.00;2.00
84339;PMS7003;74521;45.618;5.212;2023-12-07T05:20:56;6.00;2.75;2.00
84339;PMS7003;74521;45.618;5.212;2023-12-07T05:23:24;3.75;3.75;1.75
84339;PMS7003;74521;45.618;5.212;2023-12-07T05:25:50;2.50;2.50;2.00
84339;PMS7003;74521;45.618;5.212;2023-12-07T05:28:17;5.00;2.00;2.00
84339;PMS7003;74521;45.618;5.212;2023-12-07T05:30:44;2.25;2.00;1.25
84339;PMS7003;74521;45.618;5.212;2023-12-07T05:33:11;2.00;2.00;1.25
84339;PMS7003;74521;45.618;5.212;2023-12-07T05:35:39;2.00;2.00;2.00
84339;PMS7003;74521;45.618;5.212;2023-12-07T05:38:05;2.00;2.00;2.00
84339;PMS7003;74521;45.618;5.212;2023-12-07T05:40:32;3.00;2.00;2.00
84339;PMS7003;74521;45.618;5.212;2023-12-07T05:42:59;2.00;1.75;1.00
84339;PMS7003;74521;45.618;5.212;2023-12-07T05:45:25;4.00;2.00;2.00
84339;PMS7003;74521;45.618;5.212;2023-12-07T05:47:52;2.00;2.00;2.00
84339;PMS7003;74521;45.618;5.212;2023-12-07T05:50:18;4.00;3.00;2.00
84339;PMS7003;74521;45.618;5.212;2023-12-07T05:52:47;4.50;3.00;3.00
84339;PMS7003;74521;45.618;5.212;2023-12-07T05:55:13;1.75;1.75;1.25
84339;PMS7003;74521;45.618;5.212;2023-12-07T05:57:40;3.25;2.25;2.00
84339;PMS7003;74521;45.618;5.212;2023-12-07T06:00:07;3.50;2.00;2.00
84339;PMS7003;74521;45.618;5.212;2023-12-07T06:02:36;3.50;2.00;1.75
84339;PMS7003;74521;45.618;5.212;2023-12-07T06:05:03;4.50;1.75;1.00
84339;PMS7003;74521;45.618;5.212;2023-12-07T06:07:30;5.25;1.75;1.25
84339;PMS7003;74521;45.618;5.212;2023-12-07T06:09:58;2.00;2.00;2.00
84339;PMS7003;74521;45.618;5.212;2023-12-07T06:12:25;2.00;2.00;1.00
84339;PMS7003;74521;45.618;5.212;2023-12-07T06:14:51;5.50;2.50;2.00
84339;PMS7003;74521;45.618;5.212;2023-12-07T06:17:19;1.75;1.75;1.75
84339;PMS7003;74521;45.618;5.212;2023-12-07T06:19:46;3.25;2.00;1.50
84339;PMS7003;74521;45.618;5.212;2023-12-07T06:22:13;1.00;1.00;1.00
84339;PMS7003;74521;45.618;5.212;2023-12-07T06:24:40;5.75;2.50;2.00
84339;PMS7003;74521;45.618;5.212;2023-12-07T06:27:08;3.00;2.25;2.00
84339;PMS7003;74521;45.618;5.212;2023-12-07T06:29:35;2.00;2.00;2.00
84339;PMS7003;74521;45.618;5.212;2023-12-07T06:32:01;1.75;1.75;1.00
84339;PMS7003;74521;45.618;5.212;2023-12-07T06:34:28;2.50;2.50;2.00
84339;PMS7003;74521;45.618;5.212;2023-12-07T06:36:55;2.00;2.00;1.50
84339;PMS7003;74521;45.618;5.212;2023-12-07T06:39:22;2.00;2.00;1.25
84339;PMS7003;74521;45.618;5.212;2023-12-07T06:41:48;2.50;2.50;2.00
84339;PMS7003;74521;45.618;5.212;2023-12-07T06:44:16;2.00;2.00;2.00
84339;PMS7003;74521;45.618;5.212;2023-12-07T06:46:43;6.25;2.50;1.50
84339;PMS7003;74521;45.618;5.212;2023-12-07T06:49:10;2.00;2.00;1.50
84339;PMS7003;74521;45.618;5.212;2023-12-07T06:51:37;2.00;2.00;2.00
84339;PMS7003;74521;45.618;5.212;2023-12-07T06:54:04;3.00;3.00;2.75
84339;PMS7003;74521;45.618;5.212;2023-12-07T06:56:31;1.00;1.00;1.00
84339;PMS7003;74521;45.618;5.212;2023-12-07T06:58:57;2.00;2.00;2.00
84339;PMS7003;74521;45.618;5.212;2023-12-07T07:01:25;2.50;2.00;1.00
84339;PMS7003;74521;45.618;5.212;2023-12-07T07:03:52;2.25;2.25;1.50
84339;PMS7003;74521;45.618;5.212;2023-12-07T07:06:19;1.75;1.75;1.50
84339;PMS7003;74521;45.618;5.212;2023-12-07T07:08:45;2.00;2.00;1.25
84339;PMS7003;74521;45.618;5.212;2023-12-07T07:11:14;4.00;1.25;1.00
84339;PMS7003;74521;45.618;5.212;2023-12-07T07:13:41;2.00;2.00;1.25
84339;PMS7003;74521;45.618;5.212;2023-12-07T07:16:08;2.25;2.00;1.50
84339;PMS7003;74521;45.618;5.212;2023-12-07T07:18:37;3.50;2.25;1.50
84339;PMS7003;74521;45.618;5.212;2023-12-07T07:21:04;5.25;3.00;2.00
84339;PMS7003;74521;45.618;5.212;2023-12-07T07:23:32;1.00;1.00;1.00
84339;PMS7003;74521;45.618;5.212;2023-12-07T07:26:01;3.25;1.75;1.00
84339;PMS7003;74521;45.618;5.212;2023-12-07T07:28:28;3.50;2.00;1.75
84339;PMS7003;74521;45.618;5.212;2023-12-07T07:30:54;2.50;2.50;1.50
84339;PMS7003;74521;45.618;5.212;2023-12-07T07:33:21;2.25;2.25;2.00
84339;PMS7003;74521;45.618;5.212;2023-12-07T07:35:49;3.75;3.75;2.00
84339;PMS7003;74521;45.618;5.212;2023-12-07T07:38:16;1.75;1.75;1.25
84339;PMS7003;74521;45.618;5.212;2023-12-07T07:40:43;2.00;2.00;1.75
84339;PMS7003;74521;45.618;5.212;2023-12-07T07:43:12;2.00;2.00;1.75
84339;PMS7003;74521;45.618;5.212;2023-12-07T07:45:39;1.00;1.00;1.00
84339;PMS7003;74521;45.618;5.212;2023-12-07T07:48:06;4.50;2.00;2.00
84339;PMS7003;74521;45.618;5.212;2023-12-07T07:50:33;2.00;2.00;1.00
84339;PMS7003;74521;45.618;5.212;2023-12-07T07:53:03;2.50;2.00;1.00
84339;PMS7003;74521;45.618;5.212;2023-12-07T07:55:29;3.00;3.00;2.00
84339;PMS7003;74521;45.618;5.212;2023-12-07T07:57:57;3.00;3.00;3.00
84339;PMS7003;74521;45.618;5.212;2023-12-07T08:00:24;19.25;11.75;6.50
84339;PMS7003;74521;45.618;5.212;2023-12-07T08:02:51;4.75;3.50;2.00
84339;PMS7003;74521;45.618;5.212;2023-12-07T08:05:18;5.25;4.00;3.00
84339;PMS7003;74521;45.618;5.212;2023-12-07T08:07:45;3.00;2.50;2.25
84339;PMS7003;74521;45.618;5.212;2023-12-07T08:10:13;4.25;2.75;1.75
84339;PMS7003;74521;45.618;5.212;2023-12-07T08:12:40;4.00;3.75;3.00
84339;PMS7003;74521;45.618;5.212;2023-12-07T08:15:08;2.00;2.00;1.50
84339;PMS7003;74521;45.618;5.212;2023-12-07T08:17:36;3.25;3.00;2.00
84339;PMS7003;74521;45.618;5.212;2023-12-07T08:20:03;6.25;3.00;2.25
84339;PMS7003;74521;45.618;5.212;2023-12-07T08:22:32;4.00;3.00;2.00
84339;PMS7003;74521;45.618;5.212;2023-12-07T08:24:59;2.75;2.00;2.00
84339;PMS7003;74521;45.618;5.212;2023-12-07T08:27:27;4.00;2.75;2.00
84339;PMS7003;74521;45.618;5.212;2023-12-07T08:29:54;3.75;3.00;2.00
84339;PMS7003;74521;45.618;5.212;2023-12-07T08:32:21;4.75;2.25;2.00
84339;PMS7003;74521;45.618;5.212;2023-12-07T08:34:50;4.50;2.50;1.50
84339;PMS7003;74521;45.618;5.212;2023-12-07T08:37:17;3.50;2.00;1.50
84339;PMS7003;74521;45.618;5.212;2023-12-07T08:39:44;12.25;9.75;6.50
84339;PMS7003;74521;45.618;5.212;2023-12-07T08:42:11;18.00;12.50;7.25
84339;PMS7003;74521;45.618;5.212;2023-12-07T08:44:39;4.75;4.00;2.75
84339;PMS7003;74521;45.618;5.212;2023-12-07T08:47:06;14.75;6.00;4.00
84339;PMS7003;74521;45.618;5.212;2023-12-07T08:49:33;7.25;6.00;5.00
84339;PMS7003;74521;45.618;5.212;2023-12-07T08:51:59;6.25;4.75;3.25
84339;PMS7003;74521;45.618;5.212;2023-12-07T08:54:26;6.75;5.00;3.00
84339;PMS7003;74521;45.618;5.212;2023-12-07T08:56:52;7.25;4.50;3.00
84339;PMS7003;74521;45.618;5.212;2023-12-07T08:59:19;9.50;5.25;4.25
84339;PMS7003;74521;45.618;5.212;2023-12-07T09:01:47;12.00;8.00;4.75
84339;PMS7003;74521;45.618;5.212;2023-12-07T09:04:14;3.25;3.00;2.50
84339;PMS7003;74521;45.618;5.212;2023-12-07T09:06:40;4.50;4.50;3.75
84339;PMS7003;74521;45.618;5.212;2023-12-07T09:09:07;7.25;5.00;4.00
84339;PMS7003;74521;45.618;5.212;2023-12-07T09:11:33;7.00;4.75;4.00
84339;PMS7003;74521;45.618;5.212;2023-12-07T09:14:00;3.00;1.75;1.00
84339;PMS7003;74521;45.618;5.212;2023-12-07T09:16:26;4.75;3.00;2.75
84339;PMS7003;74521;45.618;5.212;2023-12-07T09:18:54;4.50;3.00;2.00
84339;PMS7003;74521;45.618;5.212;2023-12-07T09:21:21;7.50;3.00;2.00
84339;PMS7003;74521;45.618;5.212;2023-12-07T09:23:48;6.00;5.00;3.50
84339;PMS7003;74521;45.618;5.212;2023-12-07T09:26:14;4.00;4.00;3.00
84339;PMS7003;74521;45.618;5.212;2023-12-07T09:28:41;5.00;5.00;3.75
84339;PMS7003;74521;45.618;5.212;2023-12-07T09:31:08;5.00;5.00;4.00
84339;PMS7003;74521;45.618;5.212;2023-12-07T09:33:34;4.75;3.75;2.75
84339;PMS7003;74521;45.618;5.212;2023-12-07T09:36:03;4.00;3.00;2.50
84339;PMS7003;74521;45.618;5.212;2023-12-07T09:38:34;39.25;33.00;22.00
84339;PMS7003;74521;45.618;5.212;2023-12-07T09:41:02;26.50;24.25;16.00
84339;PMS7003;74521;45.618;5.212;2023-12-07T09:43:29;19.50;18.00;12.25
84339;PMS7003;74521;45.618;5.212;2023-12-07T09:45:56;20.00;16.00;10.25
84339;PMS7003;74521;45.618;5.212;2023-12-07T09:48:24;17.50;13.25;9.75
84339;PMS7003;74521;45.618;5.212;2023-12-07T09:50:51;14.25;12.00;8.00
84339;PMS7003;74521;45.618;5.212;2023-12-07T09:53:20;13.75;9.00;6.50
84339;PMS7003;74521;45.618;5.212;2023-12-07T09:55:47;20.75;12.25;8.75
84339;PMS7003;74521;45.618;5.212;2023-12-07T09:58:14;14.50;12.50;7.00
84339;PMS7003;74521;45.618;5.212;2023-12-07T10:00:40;12.50;11.25;7.00
84339;PMS7003;74521;45.618;5.212;2023-12-07T10:03:07;17.50;11.00;5.00
84339;PMS7003;74521;45.618;5.212;2023-12-07T10:05:52;12.75;8.50;4.75
84339;PMS7003;74521;45.618;5.212;2023-12-07T10:08:26;7.50;6.50;5.00
84339;PMS7003;74521;45.618;5.212;2023-12-07T10:11:01;13.00;11.00;6.75
84339;PMS7003;74521;45.618;5.212;2023-12-07T10:13:28;12.00;8.50;5.25
84339;PMS7003;74521;45.618;5.212;2023-12-07T10:16:05;13.25;11.25;6.00
84339;PMS7003;74521;45.618;5.212;2023-12-07T10:18:33;17.00;11.50;7.50
84339;PMS7003;74521;45.618;5.212;2023-12-07T10:21:00;14.75;11.00;7.25
84339;PMS7003;74521;45.618;5.212;2023-12-07T10:23:29;14.25;9.75;5.75
84339;PMS7003;74521;45.618;5.212;2023-12-07T10:25:57;13.75;11.00;6.50
84339;PMS7003;74521;45.618;5.212;2023-12-07T10:28:24;11.75;10.75;6.75
84339;PMS7003;74521;45.618;5.212;2023-12-07T10:30:51;16.75;11.75;8.00
84339;PMS7003;74521;45.618;5.212;2023-12-07T10:33:19;12.75;9.75;6.75
84339;PMS7003;74521;45.618;5.212;2023-12-07T10:35:46;16.75;10.25;6.00
84339;PMS7003;74521;45.618;5.212;2023-12-07T10:38:15;15.25;11.75;8.75
84339;PMS7003;74521;45.618;5.212;2023-12-07T10:40:44;10.00;8.25;5.50
84339;PMS7003;74521;45.618;5.212;2023-12-07T10:43:12;10.75;7.00;5.00
84339;PMS7003;74521;45.618;5.212;2023-12-07T10:45:42;14.50;9.00;7.00
84339;PMS7003;74521;45.618;5.212;2023-12-07T10:48:10;13.00;9.75;7.00
84339;PMS7003;74521;45.618;5.212;2023-12-07T10:50:37;10.75;7.75;6.25
84339;PMS7003;74521;45.618;5.212;2023-12-07T10:53:09;14.00;10.25;6.25
84339;PMS7003;74521;45.618;5.212;2023-12-07T10:55:38;13.00;11.25;9.25
84339;PMS7003;74521;45.618;5.212;2023-12-07T10:58:11;19.75;14.00;9.50
84339;PMS7003;74521;45.618;5.212;2023-12-07T11:00:40;17.25;15.75;9.75
84339;PMS7003;74521;45.618;5.212;2023-12-07T11:03:11;22.00;15.25;11.00
84339;PMS7003;74521;45.618;5.212;2023-12-07T11:05:41;14.75;12.50;10.00
84339;PMS7003;74521;45.618;5.212;2023-12-07T11:08:09;17.00;11.75;7.25
84339;PMS7003;74521;45.618;5.212;2023-12-07T11:10:42;10.50;8.00;4.25
84339;PMS7003;74521;45.618;5.212;2023-12-07T11:13:18;4.25;4.25;3.00
84339;PMS7003;74521;45.618;5.212;2023-12-07T11:15:49;3.00;3.00;2.00
84339;PMS7003;74521;45.618;5.212;2023-12-07T11:18:16;2.75;2.75;2.25
84339;PMS7003;74521;45.618;5.212;2023-12-07T11:20:43;3.25;2.50;2.00
84339;PMS7003;74521;45.618;5.212;2023-12-07T11:23:15;3.25;3.00;2.00
84339;PMS7003;74521;45.618;5.212;2023-12-07T11:25:44;3.00;3.00;2.25
84339;PMS7003;74521;45.618;5.212;2023-12-07T11:28:12;2.00;2.00;2.00
84339;PMS7003;74521;45.618;5.212;2023-12-07T11:30:42;5.25;2.00;1.50
84339;PMS7003;74521;45.618;5.212;2023-12-07T11:33:10;3.00;1.00;1.00
84339;PMS7003;74521;45.618;5.212;2023-12-07T11:38:32;2.00;2.00;1.00
84339;PMS7003;74521;45.618;5.212;2023-12-07T11:40:59;1.25;1.25;0.25
84339;PMS7003;74521;45.618;5.212;2023-12-07T11:43:41;1.00;1.00;1.00
84339;PMS7003;74521;45.618;5.212;2023-12-07T11:46:13;1.00;1.00;1.00
84339;PMS7003;74521;45.618;5.212;2023-12-07T11:48:45;1.25;1.25;1.00
84339;PMS7003;74521;45.618;5.212;2023-12-07T11:51:13;2.00;2.00;1.00
84339;PMS7003;74521;45.618;5.212;2023-12-07T11:53:40;1.25;0.75;0.50
84339;PMS7003;74521;45.618;5.212;2023-12-07T11:56:07;3.00;1.00;1.00
84339;PMS7003;74521;45.618;5.212;2023-12-07T11:58:36;0.50;0.50;0.50
84339;PMS7003;74521;45.618;5.212;2023-12-07T12:01:03;1.25;1.00;1.00
84339;PMS7003;74521;45.618;5.212;2023-12-07T12:03:33;2.25;1.00;1.00
84339;PMS7003;74521;45.618;5.212;2023-12-07T12:06:02;1.75;1.00;1.00
84339;PMS7003;74521;45.618;5.212;2023-12-07T12:08:31;1.00;1.00;0.00
84339;PMS7003;74521;45.618;5.212;2023-12-07T12:10:58;1.00;1.00;1.00
84339;PMS7003;74521;45.618;5.212;2023-12-07T12:13:27;1.00;1.00;0.50
84339;PMS7003;74521;45.618;5.212;2023-12-07T12:15:55;0.50;0.50;0.00
84339;PMS7003;74521;45.618;5.212;2023-12-07T12:18:22;1.00;1.00;1.00
84339;PMS7003;74521;45.618;5.212;2023-12-07T12:20:52;2.00;0.00;0.00
84339;PMS7003;74521;45.618;5.212;2023-12-07T12:23:19;1.00;1.00;0.75
84339;PMS7003;74521;45.618;5.212;2023-12-07T12:25:46;0.00;0.00;0.00
84339;PMS7003;74521;45.618;5.212;2023-12-07T12:28:14;0.25;0.00;0.00
84339;PMS7003;74521;45.618;5.212;2023-12-07T12:30:42;4.50;1.00;1.00
84339;PMS7003;74521;45.618;5.212;2023-12-07T12:33:10;0.00;0.00;0.00
84339;PMS7003;74521;45.618;5.212;2023-12-07T12:35:36;2.50;1.00;1.00
84339;PMS7003;74521;45.618;5.212;2023-12-07T12:38:05;1.00;1.00;1.00
84339;PMS7003;74521;45.618;5.212;2023-12-07T12:40:36;3.75;1.00;1.00
84339;PMS7003;74521;45.618;5.212;2023-12-07T12:43:02;0.75;0.75;0.25
84339;PMS7003;74521;45.618;5.212;2023-12-07T12:45:29;0.50;0.00;0.00
84339;PMS7003;74521;45.618;5.212;2023-12-07T12:47:57;0.00;0.00;0.00
84339;PMS7003;74521;45.618;5.212;2023-12-07T12:50:34;1.00;0.00;0.00
84339;PMS7003;74521;45.618;5.212;2023-12-07T12:53:02;0.50;0.50;0.00
84339;PMS7003;74521;45.618;5.212;2023-12-07T12:55:32;1.00;1.00;0.75
84339;PMS7003;74521;45.618;5.212;2023-12-07T12:58:00;0.75;0.75;0.00
84339;PMS7003;74521;45.618;5.212;2023-12-07T13:00:28;0.50;0.50;0.25
84339;PMS7003;74521;45.618;5.212;2023-12-07T13:02:55;1.50;1.00;0.00
84339;PMS7003;74521;45.618;5.212;2023-12-07T13:05:22;0.00;0.00;0.00
84339;PMS7003;74521;45.618;5.212;2023-12-07T13:07:49;3.25;1.00;0.00
84339;PMS7003;74521;45.618;5.212;2023-12-07T13:10:17;1.00;1.00;1.00
84339;PMS7003;74521;45.618;5.212;2023-12-07T13:12:44;1.00;1.00;0.75
84339;PMS7003;74521;45.618;5.212;2023-12-07T13:15:11;0.50;0.50;0.00
84339;PMS7003;74521;45.618;5.212;2023-12-07T13:17:38;0.75;0.75;0.75
84339;PMS7003;74521;45.618;5.212;2023-12-07T13:20:05;1.50;0.00;0.00
84339;PMS7003;74521;45.618;5.212;2023-12-07T13:22:35;3.50;0.50;0.00
84339;PMS7003;74521;45.618;5.212;2023-12-07T13:25:02;0.00;0.00;0.00
84339;PMS7003;74521;45.618;5.212;2023-12-07T13:27:31;1.50;1.00;1.00
84339;PMS7003;74521;45.618;5.212;2023-12-07T13:29:58;0.75;0.75;0.25
84339;PMS7003;74521;45.618;5.212;2023-12-07T13:32:25;0.50;0.50;0.50
84339;PMS7003;74521;45.618;5.212;2023-12-07T13:34:52;1.75;1.00;1.00
84339;PMS7003;74521;45.618;5.212;2023-12-07T13:37:18;3.25;1.00;0.75
84339;PMS7003;74521;45.618;5.212;2023-12-07T13:39:46;0.00;0.00;0.00
84339;PMS7003;74521;45.618;5.212;2023-12-07T13:42:17;0.00;0.00;0.00
84339;PMS7003;74521;45.618;5.212;2023-12-07T13:44:46;1.25;0.00;0.00
84339;PMS7003;74521;45.618;5.212;2023-12-07T13:47:12;0.50;0.25;0.25
84339;PMS7003;74521;45.618;5.212;2023-12-07T13:49:43;0.00;0.00;0.00
84339;PMS7003;74521;45.618;5.212;2023-12-07T13:52:09;0.25;0.25;0.00
84339;PMS7003;74521;45.618;5.212;2023-12-07T13:54:36;1.50;0.25;0.00
84339;PMS7003;74521;45.618;5.212;2023-12-07T13:57:04;0.25;0.25;0.00
84339;PMS7003;74521;45.618;5.212;2023-12-07T13:59:32;0.00;0.00;0.00
84339;PMS7003;74521;45.618;5.212;2023-12-07T14:02:00;2.00;0.00;0.00
84339;PMS7003;74521;45.618;5.212;2023-12-07T14:04:27;2.00;1.00;1.00
84339;PMS7003;74521;45.618;5.212;2023-12-07T14:06:53;1.00;1.00;1.00
84339;PMS7003;74521;45.618;5.212;2023-12-07T14:09:20;0.00;0.00;0.00
84339;PMS7003;74521;45.618;5.212;2023-12-07T14:11:47;3.00;0.00;0.00
84339;PMS7003;74521;45.618;5.212;2023-12-07T14:14:14;0.00;0.00;0.00
84339;PMS7003;74521;45.618;5.212;2023-12-07T14:16:41;0.75;0.50;0.00
84339;PMS7003;74521;45.618;5.212;2023-12-07T14:19:09;1.00;0.25;0.25
84339;PMS7003;74521;45.618;5.212;2023-12-07T14:21:36;2.00;0.25;0.00
84339;PMS7003;74521;45.618;5.212;2023-12-07T14:24:03;1.75;0.00;0.00